Time;durP1;ratioP1;P1;durP2;ratioP2;P2;SDS_P1;SDS_P2;PMS_P1;PMS_P2;Temp;Humidity;BMP_temperature;BMP_pressure;BME280_temperature;BME280_humidity;BME280_pressure;Samples;Min_cycle;Max_cycle;Signal;HPM_P1;HPM_P2
2021/06/30 00:01:21;;;;;;;7.20;1.38;;;;;;;24.18;43.23;100060.53;5096473;28;20067;-70
2021/06/30 00:04:08;;;;;;;4.20;1.20;;;;;;;24.23;44.31;100067.59;5095274;28;20043;-70
2021/06/30 00:06:52;;;;;;;2.45;1.20;;;;;;;24.69;43.35;100066.75;5091632;28;20039;-70
2021/06/30 00:09:39;;;;;;;5.03;1.20;;;;;;;24.49;42.51;100069.53;5089615;28;20062;-70
2021/06/30 00:12:24;;;;;;;5.43;1.67;;;;;;;24.83;43.07;100074.06;5095771;28;20486;-72
2021/06/30 00:15:18;;;;;;;4.97;1.08;;;;;;;24.92;42.86;100068.72;5089390;28;20055;-73
2021/06/30 00:18:04;;;;;;;7.78;1.10;;;;;;;25.10;42.91;100074.69;5092830;28;20526;-73
2021/06/30 00:20:50;;;;;;;4.55;1.10;;;;;;;24.99;41.45;100063.78;5091618;28;20051;-73
2021/06/30 00:23:34;;;;;;;5.07;1.27;;;;;;;25.27;42.53;100061.63;5091869;28;20526;-73
2021/06/30 00:26:20;;;;;;;9.55;1.60;;;;;;;25.14;42.26;100058.75;5095171;28;20507;-72
2021/06/30 00:29:06;;;;;;;8.43;1.92;;;;;;;25.09;42.09;100062.03;5087784;28;20043;-73
2021/06/30 00:31:51;;;;;;;7.63;1.50;;;;;;;25.40;41.04;100060.53;5089275;28;20082;-73
2021/06/30 00:34:36;;;;;;;3.42;1.67;;;;;;;24.87;41.74;100055.28;5088613;28;20406;-72
2021/06/30 00:37:21;;;;;;;2.92;1.40;;;;;;;24.92;42.16;100057.59;5091742;28;20411;-72
2021/06/30 00:40:07;;;;;;;2.40;1.33;;;;;;;24.65;42.12;100052.94;5096704;28;20415;-70
2021/06/30 00:42:53;;;;;;;5.65;1.27;;;;;;;24.51;42.97;100061.56;5093399;28;20046;-71
2021/06/30 00:45:38;;;;;;;5.55;1.35;;;;;;;24.34;43.83;100048.75;5091230;28;20058;-71
2021/06/30 00:48:23;;;;;;;2.50;1.10;;;;;;;24.66;43.40;100057.28;5089728;28;20043;-71
2021/06/30 00:51:08;;;;;;;1.75;1.08;;;;;;;24.60;43.58;100049.84;5091371;28;20047;-73
2021/06/30 00:53:54;;;;;;;2.42;1.45;;;;;;;24.41;43.38;100056.19;5090460;28;20042;-72
2021/06/30 00:56:39;;;;;;;6.03;1.83;;;;;;;23.98;43.94;100050.53;5089009;28;20106;-72
2021/06/30 00:59:24;;;;;;;5.65;1.50;;;;;;;23.65;45.45;100055.06;5092011;28;20043;-72
2021/06/30 01:02:09;;;;;;;4.00;1.88;;;;;;;23.85;44.92;100056.72;5092581;28;20043;-73
2021/06/30 01:04:54;;;;;;;8.43;1.55;;;;;;;23.98;45.49;100058.88;5087679;28;20071;-73
2021/06/30 01:07:40;;;;;;;2.00;1.80;;;;;;;23.86;45.57;100054.72;5091243;28;20039;-73
2021/06/30 01:10:25;;;;;;;3.25;2.00;;;;;;;23.10;46.10;100053.44;5092058;28;20051;-71
2021/06/30 01:13:10;;;;;;;3.83;1.88;;;;;;;23.07;46.19;100045.91;5092201;28;20058;-70
2021/06/30 01:15:55;;;;;;;5.80;2.00;;;;;;;23.02;46.79;100047.16;5092937;28;20039;-71
2021/06/30 01:18:40;;;;;;;2.97;1.52;;;;;;;22.88;46.96;100047.34;5089914;28;20118;-71
2021/06/30 01:21:26;;;;;;;4.15;1.40;;;;;;;22.74;48.02;100058.63;5092480;28;20046;-73
2021/06/30 01:24:11;;;;;;;4.40;1.75;;;;;;;22.63;47.72;100065.44;5095002;28;20543;-72
2021/06/30 01:26:56;;;;;;;1.67;1.20;;;;;;;22.95;48.65;100058.38;5090776;28;20063;-72
2021/06/30 01:29:43;;;;;;;7.82;1.50;;;;;;;23.25;48.17;100059.56;5089873;28;20518;-70
2021/06/30 01:32:28;;;;;;;3.55;1.52;;;;;;;23.02;48.10;100054.69;5095521;28;20051;-70
2021/06/30 01:35:23;;;;;;;3.95;1.08;;;;;;;23.25;48.26;100063.13;5093390;28;20046;-71
2021/06/30 01:38:08;;;;;;;10.00;1.90;;;;;;;23.38;47.02;100068.88;5094114;28;20055;-71
2021/06/30 01:40:55;;;;;;;3.92;1.85;;;;;;;23.29;47.14;100054.75;5100022;28;20043;-71
2021/06/30 01:43:41;;;;;;;5.88;1.55;;;;;;;23.28;47.87;100064.28;5095784;28;20055;-73
2021/06/30 01:46:26;;;;;;;2.35;1.35;;;;;;;23.51;47.41;100067.16;5092913;28;20039;-72
2021/06/30 01:49:11;;;;;;;6.28;1.58;;;;;;;23.69;46.29;100076.00;5098643;28;20506;-74
2021/06/30 01:51:56;;;;;;;7.68;1.88;;;;;;;23.49;46.00;100066.78;5097125;28;20043;-74
2021/06/30 01:54:41;;;;;;;6.22;2.58;;;;;;;23.27;46.63;100062.69;5090115;28;20043;-71
2021/06/30 01:57:26;;;;;;;4.40;1.77;;;;;;;22.86;48.02;100071.94;5083852;28;20043;-71
2021/06/30 02:00:14;;;;;;;6.55;1.90;;;;;;;23.18;48.02;100071.53;5095864;28;20051;-71
2021/06/30 02:03:00;;;;;;;5.07;1.38;;;;;;;23.34;47.71;100070.94;5093656;28;20039;-71
2021/06/30 02:05:48;;;;;;;1.40;1.30;;;;;;;23.35;48.45;100086.38;5096579;28;20038;-71
2021/06/30 02:08:33;;;;;;;2.90;1.40;;;;;;;23.47;48.14;100088.59;5094805;28;20047;-73
2021/06/30 02:15:27;;;;;;;4.30;1.45;;;;;;;23.72;47.11;100082.72;5086685;28;20404;-72
2021/06/30 02:18:15;;;;;;;3.85;1.85;;;;;;;23.29;48.08;100066.63;5096714;28;20062;-71
2021/06/30 02:21:00;;;;;;;2.03;1.13;;;;;;;23.40;47.82;100077.59;5092880;28;20047;-72
2021/06/30 02:23:46;;;;;;;5.97;2.33;;;;;;;22.66;48.96;100072.91;5096271;28;20047;-71
2021/06/30 02:26:34;;;;;;;4.22;1.48;;;;;;;22.50;48.80;100076.28;5095210;28;20051;-71
2021/06/30 02:29:19;;;;;;;5.75;2.05;;;;;;;22.54;48.98;100071.47;5098432;28;20039;-71
2021/06/30 02:32:04;;;;;;;5.22;1.85;;;;;;;22.16;49.82;100073.41;5092234;28;20514;-72
2021/06/30 02:34:49;;;;;;;3.25;1.40;;;;;;;22.40;49.94;100055.78;5093188;28;20058;-73
2021/06/30 02:37:34;;;;;;;6.63;1.98;;;;;;;22.34;50.17;100059.41;5088212;28;20524;-71
2021/06/30 02:40:20;;;;;;;8.25;1.40;;;;;;;22.90;48.70;100069.13;5096845;28;20047;-71
2021/06/30 02:43:06;;;;;;;3.78;1.70;;;;;;;22.98;48.19;100057.53;5096359;28;20110;-72
2021/06/30 02:45:51;;;;;;;8.93;1.80;;;;;;;22.95;48.58;100060.34;5092519;28;20035;-71
2021/06/30 02:48:37;;;;;;;11.40;2.08;;;;;;;23.01;48.02;100053.13;5092236;28;20047;-70
2021/06/30 02:51:22;;;;;;;9.05;1.38;;;;;;;23.62;47.09;100059.44;5092136;28;20286;-70
2021/06/30 02:54:06;;;;;;;5.05;1.75;;;;;;;24.00;46.15;100046.16;5091115;28;20668;-70
2021/06/30 02:56:51;;;;;;;9.98;1.40;;;;;;;24.47;45.33;100062.84;5093935;28;20047;-72
2021/06/30 02:59:36;;;;;;;189.57;33.45;;;;;;;24.72;44.60;100060.34;5091666;28;20055;-70
2021/06/30 03:02:21;;;;;;;42.30;8.38;;;;;;;24.90;44.00;100060.03;5095820;28;20047;-73
2021/06/30 03:05:07;;;;;;;14.23;2.83;;;;;;;25.02;43.59;100059.38;5096004;28;20059;-72
2021/06/30 03:07:52;;;;;;;6.60;2.17;;;;;;;25.12;43.48;100053.59;5092094;28;20043;-72
2021/06/30 03:10:37;;;;;;;5.50;2.53;;;;;;;25.20;43.07;100059.78;5095257;28;20050;-72
2021/06/30 03:13:22;;;;;;;2.35;1.23;;;;;;;25.26;42.87;100049.72;5091823;28;20043;-67
2021/06/30 03:16:07;;;;;;;10.90;1.92;;;;;;;25.32;42.62;100058.34;5098048;28;20075;-72
2021/06/30 03:18:52;;;;;;;6.40;1.55;;;;;;;25.37;42.47;100053.03;5089578;28;20514;-72
2021/06/30 03:21:37;;;;;;;8.00;1.90;;;;;;;25.41;42.51;100053.75;5092841;28;20055;-72
2021/06/30 03:24:22;;;;;;;13.07;1.95;;;;;;;25.42;42.38;100063.66;5092605;28;20055;-71
2021/06/30 03:27:08;;;;;;;8.65;1.67;;;;;;;25.47;41.98;100077.09;5096881;28;20044;-72
2021/06/30 03:29:53;;;;;;;14.13;2.00;;;;;;;25.46;42.09;100060.81;5094071;28;20047;-71
2021/06/30 03:32:38;;;;;;;5.03;1.70;;;;;;;25.48;41.89;100067.53;5076806;28;20418;-73
2021/06/30 03:35:23;;;;;;;6.43;1.98;;;;;;;25.52;41.80;100059.06;5097122;28;20047;-71
2021/06/30 03:38:08;;;;;;;6.75;1.90;;;;;;;25.53;41.66;100069.78;5095204;28;20043;-73
2021/06/30 03:40:53;;;;;;;11.38;1.98;;;;;;;25.42;41.78;100063.66;5089876;28;20043;-72
2021/06/30 03:43:38;;;;;;;5.07;1.25;;;;;;;25.49;41.74;100069.09;5097939;28;20051;-72
2021/06/30 03:46:23;;;;;;;4.82;1.38;;;;;;;25.51;41.57;100065.84;5095013;28;20039;-71
2021/06/30 03:49:08;;;;;;;7.35;1.40;;;;;;;25.50;41.39;100053.16;5091540;28;20043;-71
2021/06/30 03:51:53;;;;;;;8.93;1.70;;;;;;;25.50;40.88;100070.63;5097383;28;20506;-71
2021/06/30 03:54:38;;;;;;;6.38;1.40;;;;;;;25.38;41.41;100068.53;5094891;28;20047;-70
2021/06/30 03:57:25;;;;;;;5.93;1.65;;;;;;;25.37;41.41;100064.19;5090867;28;20043;-72
2021/06/30 04:00:11;;;;;;;5.88;1.85;;;;;;;25.32;41.57;100053.56;5096923;28;20043;-72
2021/06/30 04:02:59;;;;;;;3.90;1.30;;;;;;;25.45;41.50;100062.78;5091882;28;20051;-72
2021/06/30 04:05:45;;;;;;;7.53;2.47;;;;;;;25.19;41.49;100063.81;5090423;28;20051;-72
2021/06/30 04:08:30;;;;;;;4.53;0.98;;;;;;;25.27;41.94;100068.00;5092557;28;20047;-72
2021/06/30 04:11:17;;;;;;;4.03;1.60;;;;;;;25.37;41.04;100057.81;5095260;28;20047;-72
2021/06/30 04:14:02;;;;;;;8.15;1.70;;;;;;;25.13;41.27;100068.28;5091260;28;20117;-72
2021/06/30 04:16:47;;;;;;;6.65;1.70;;;;;;;24.90;41.45;100060.81;5096428;28;20051;-72
2021/06/30 04:19:32;;;;;;;4.97;1.65;;;;;;;25.10;42.09;100071.91;5092774;28;20047;-72
2021/06/30 04:22:17;;;;;;;5.78;1.58;;;;;;;25.02;42.08;100067.72;5091935;28;20537;-72
2021/06/30 04:25:06;;;;;;;2.92;1.35;;;;;;;25.25;41.99;100062.06;5093016;28;20043;-71
2021/06/30 04:27:51;;;;;;;6.60;1.45;;;;;;;25.38;41.78;100068.53;5093689;28;20047;-72
2021/06/30 04:30:36;;;;;;;3.45;1.30;;;;;;;25.47;41.61;100063.16;5093836;28;20047;-72
2021/06/30 04:33:22;;;;;;;8.50;1.45;;;;;;;25.55;41.57;100055.44;5089526;28;20047;-72
2021/06/30 04:36:08;;;;;;;4.47;1.45;;;;;;;25.50;41.17;100065.06;5089435;28;20043;-72
2021/06/30 04:38:53;;;;;;;4.22;1.83;;;;;;;25.36;41.58;100048.69;5090597;28;20055;-73
2021/06/30 04:41:38;;;;;;;5.40;1.40;;;;;;;25.26;41.96;100060.84;5097616;28;20043;-72
2021/06/30 04:44:23;;;;;;;4.80;1.30;;;;;;;25.41;41.91;100073.22;5096204;28;20046;-72
2021/06/30 04:47:08;;;;;;;4.40;1.88;;;;;;;25.52;41.59;100065.44;5092167;28;20399;-72
2021/06/30 04:49:53;;;;;;;5.10;1.50;;;;;;;25.55;41.46;100059.00;5100280;28;20070;-70
2021/06/30 04:52:40;;;;;;;12.30;2.13;;;;;;;25.63;41.56;100062.44;5099112;28;20054;-71
2021/06/30 04:55:25;;;;;;;3.88;1.25;;;;;;;25.67;41.44;100065.13;5094103;28;20047;-71
2021/06/30 04:58:10;;;;;;;16.63;2.05;;;;;;;25.72;41.33;100067.41;5092909;28;20397;-71
2021/06/30 05:00:56;;;;;;;7.20;1.95;;;;;;;25.67;41.42;100065.91;5097693;28;20043;-71
2021/06/30 05:03:40;;;;;;;5.60;1.85;;;;;;;25.55;41.11;100064.59;5090773;28;20042;-70
2021/06/30 05:06:25;;;;;;;7.82;1.40;;;;;;;25.40;41.96;100077.22;5096736;28;20408;-71
2021/06/30 05:09:11;;;;;;;20.48;1.92;;;;;;;25.18;43.49;100078.94;5100794;28;20046;-71
2021/06/30 05:11:55;;;;;;;30.00;2.80;;;;;;;25.14;43.42;100081.75;5085502;28;20067;-70
2021/06/30 05:14:40;;;;;;;16.23;2.75;;;;;;;25.02;43.40;100073.28;5087426;28;20051;-72
2021/06/30 05:17:25;;;;;;;24.73;2.42;;;;;;;24.91;43.40;100081.84;5094477;28;20511;-71
2021/06/30 05:20:11;;;;;;;47.50;4.97;;;;;;;24.88;43.46;100079.16;5090629;28;20051;-71
2021/06/30 05:22:56;;;;;;;23.63;3.28;;;;;;;25.07;42.79;100078.34;5100283;28;20510;-72
2021/06/30 05:25:40;;;;;;;16.13;2.55;;;;;;;24.90;42.20;100080.28;5099015;28;20052;-72
2021/06/30 05:28:25;;;;;;;8.98;1.85;;;;;;;24.40;43.47;100077.63;5093692;28;20047;-72
2021/06/30 05:31:11;;;;;;;9.77;1.83;;;;;;;24.04;44.88;100082.97;5093860;28;20044;-71
2021/06/30 05:33:56;;;;;;;11.85;1.50;;;;;;;24.49;43.40;100086.19;5092153;28;20047;-71
2021/06/30 05:36:47;;;;;;;14.43;1.90;;;;;;;24.93;42.83;100087.78;5090493;28;20503;-72
2021/06/30 05:39:32;;;;;;;9.50;1.88;;;;;;;25.27;42.31;100089.47;5092762;28;20522;-71
2021/06/30 05:42:17;;;;;;;42.45;8.50;;;;;;;25.41;42.04;100084.38;5090450;28;20542;-71
2021/06/30 05:45:03;;;;;;;43.47;8.32;;;;;;;25.51;41.73;100083.34;5095033;28;20059;-71
2021/06/30 05:47:48;;;;;;;20.15;3.33;;;;;;;25.51;41.41;100088.13;5091487;28;20396;-72
2021/06/30 05:50:34;;;;;;;10.20;1.80;;;;;;;25.41;42.14;100089.16;5088438;28;20047;-72
2021/06/30 05:53:18;;;;;;;11.75;2.22;;;;;;;25.29;42.46;100087.84;5095398;28;20043;-73
2021/06/30 05:56:05;;;;;;;10.25;2.08;;;;;;;25.54;42.72;100104.00;5093570;28;20046;-72
2021/06/30 05:58:49;;;;;;;12.07;2.78;;;;;;;25.58;42.14;100087.22;5089778;28;20541;-72
2021/06/30 06:01:34;;;;;;;15.48;2.13;;;;;;;25.42;42.37;100099.06;5089403;28;20054;-73
2021/06/30 06:04:19;;;;;;;13.27;2.47;;;;;;;25.49;42.13;100093.38;5093959;28;20058;-72
2021/06/30 06:07:04;;;;;;;16.50;2.20;;;;;;;25.44;42.22;100088.31;5093287;28;20036;-73
2021/06/30 06:09:49;;;;;;;5.88;1.83;;;;;;;25.52;42.60;100093.28;5088774;28;20042;-71
2021/06/30 06:12:35;;;;;;;11.27;2.50;;;;;;;25.63;42.54;100084.72;5093451;28;20051;-71
2021/06/30 06:15:20;;;;;;;8.70;2.00;;;;;;;25.66;42.52;100088.63;5090670;28;20039;-71
2021/06/30 06:18:09;;;;;;;10.55;2.55;;;;;;;25.81;42.31;100090.63;5090688;28;20047;-70
2021/06/30 06:20:54;;;;;;;6.70;2.33;;;;;;;25.64;42.66;100091.06;5091342;28;20518;-71
2021/06/30 06:23:39;;;;;;;10.73;2.67;;;;;;;25.47;43.04;100095.78;5097202;28;20055;-72
2021/06/30 06:26:24;;;;;;;10.70;2.30;;;;;;;25.67;42.43;100092.97;5094503;28;20530;-72
2021/06/30 06:29:10;;;;;;;12.02;2.50;;;;;;;25.94;42.30;100093.53;5099128;28;20604;-73
2021/06/30 06:31:55;;;;;;;12.35;2.58;;;;;;;25.85;42.15;100099.69;5095457;28;20490;-72
2021/06/30 06:34:40;;;;;;;8.60;1.70;;;;;;;25.83;42.43;100095.78;5094190;28;20392;-72
2021/06/30 06:37:25;;;;;;;8.43;2.17;;;;;;;25.73;42.13;100113.53;5098041;28;20056;-72
2021/06/30 06:40:11;;;;;;;12.10;2.35;;;;;;;25.80;42.26;100099.44;5100935;28;20047;-72
2021/06/30 06:42:56;;;;;;;6.65;1.70;;;;;;;25.96;41.39;100110.59;5093507;28;20043;-72
2021/06/30 06:45:41;;;;;;;8.70;1.45;;;;;;;26.18;41.30;100102.50;5098104;28;20051;-72
2021/06/30 06:48:26;;;;;;;10.13;1.70;;;;;;;26.24;40.66;100112.72;5095045;28;20168;-72
2021/06/30 06:51:11;;;;;;;11.07;1.90;;;;;;;26.37;40.44;100104.41;5095568;28;20039;-71
2021/06/30 06:53:56;;;;;;;10.27;1.20;;;;;;;26.31;39.89;100104.16;5095962;28;20059;-71
2021/06/30 06:56:41;;;;;;;13.18;1.60;;;;;;;26.47;39.60;100102.56;5095829;28;20522;-71
2021/06/30 06:59:26;;;;;;;9.70;1.55;;;;;;;26.58;39.92;100108.66;5094524;28;20039;-72
2021/06/30 07:02:11;;;;;;;11.98;1.90;;;;;;;26.72;39.77;100108.28;5099169;28;20039;-72
2021/06/30 07:04:56;;;;;;;8.60;1.48;;;;;;;26.69;39.55;100107.16;5094855;28;20047;-72
2021/06/30 07:07:45;;;;;;;8.95;1.95;;;;;;;26.76;38.56;100109.75;5093686;28;20047;-72
2021/06/30 07:10:30;;;;;;;9.55;1.08;;;;;;;26.77;38.56;100105.72;5099166;28;20047;-71
2021/06/30 07:13:15;;;;;;;2.97;1.20;;;;;;;26.95;38.78;100113.66;5094563;28;20508;-71
2021/06/30 07:16:00;;;;;;;9.95;1.70;;;;;;;27.08;38.21;100116.47;5092955;28;20097;-71
2021/06/30 07:18:45;;;;;;;6.10;1.23;;;;;;;27.13;37.76;100118.72;5093006;28;20538;-71
2021/06/30 07:21:32;;;;;;;11.95;1.67;;;;;;;27.02;36.76;100116.22;5096644;28;20121;-71
2021/06/30 07:24:17;;;;;;;9.93;1.42;;;;;;;27.20;36.85;100116.53;5092797;28;20047;-71
2021/06/30 07:27:02;;;;;;;6.15;1.50;;;;;;;27.33;36.50;100112.97;5091350;28;20035;-71
2021/06/30 07:29:47;;;;;;;16.50;1.30;;;;;;;27.41;36.78;100108.75;5096079;28;20047;-71
2021/06/30 07:32:32;;;;;;;10.57;1.70;;;;;;;27.47;36.57;100104.97;5094871;28;20527;-72
2021/06/30 07:35:17;;;;;;;11.70;1.75;;;;;;;27.46;36.55;100113.78;5090645;28;20502;-71
2021/06/30 07:38:02;;;;;;;5.43;1.48;;;;;;;27.42;36.70;100110.31;5093604;28;20047;-71
2021/06/30 07:40:47;;;;;;;4.43;1.00;;;;;;;27.35;36.42;100104.94;5094390;28;20545;-73
2021/06/30 07:43:32;;;;;;;13.52;1.23;;;;;;;27.42;36.53;100102.72;5093083;28;20051;-72
2021/06/30 07:46:17;;;;;;;6.50;1.30;;;;;;;27.51;36.39;100107.66;5098324;28;20063;-72
2021/06/30 07:49:02;;;;;;;15.45;1.67;;;;;;;27.45;36.15;100103.81;5093530;28;20039;-72
2021/06/30 07:51:47;;;;;;;7.63;1.30;;;;;;;27.48;36.07;100106.50;5095201;28;20043;-72
2021/06/30 07:54:33;;;;;;;6.35;1.40;;;;;;;27.60;36.40;100104.97;5099592;28;20051;-71
2021/06/30 07:57:17;;;;;;;8.43;1.30;;;;;;;27.75;36.28;100105.31;5095405;28;20047;-71
2021/06/30 08:00:05;;;;;;;8.73;1.75;;;;;;;27.81;36.03;100107.13;5091711;28;20510;-71
2021/06/30 08:02:56;;;;;;;19.20;1.98;;;;;;;27.92;35.57;100101.19;5091438;28;20035;-71
2021/06/30 08:05:41;;;;;;;45.05;5.97;;;;;;;27.92;35.57;100103.97;5101981;28;20044;-71
2021/06/30 08:08:26;;;;;;;5.70;1.33;;;;;;;27.85;35.24;100099.41;5095081;28;20043;-72
2021/06/30 08:11:11;;;;;;;25.02;2.25;;;;;;;27.83;36.00;100107.47;5095181;28;20044;-72
2021/06/30 08:13:56;;;;;;;12.95;2.05;;;;;;;27.80;35.71;100105.53;5093385;28;20050;-71
2021/06/30 08:16:41;;;;;;;12.73;1.58;;;;;;;27.79;35.57;100122.75;5095179;28;20121;-73
2021/06/30 08:19:26;;;;;;;13.07;1.55;;;;;;;27.68;36.14;100111.16;5093671;28;20043;-70
2021/06/30 08:22:11;;;;;;;7.32;1.20;;;;;;;27.70;36.26;100103.09;5092903;28;20043;-72
2021/06/30 08:24:56;;;;;;;9.85;1.42;;;;;;;27.75;36.17;100106.09;5089213;28;20498;-71
2021/06/30 08:27:41;;;;;;;5.90;0.90;;;;;;;27.84;36.19;100105.41;5095707;28;20503;-72
2021/06/30 08:30:26;;;;;;;6.85;1.27;;;;;;;27.94;35.91;100102.28;5095313;28;20510;-73
2021/06/30 08:33:12;;;;;;;12.05;1.60;;;;;;;27.92;36.41;100109.56;5101224;28;20059;-71
2021/06/30 08:35:57;;;;;;;6.95;1.27;;;;;;;27.96;36.67;100105.44;5109903;28;20066;-72
2021/06/30 08:38:42;;;;;;;6.55;1.58;;;;;;;27.89;36.38;100110.44;5084135;28;20055;-72
2021/06/30 08:41:26;;;;;;;10.07;1.20;;;;;;;27.89;36.20;100100.06;5100424;28;20039;-71
2021/06/30 08:44:12;;;;;;;5.82;1.92;;;;;;;28.00;36.50;100106.09;5094128;28;20412;-73
2021/06/30 08:46:57;;;;;;;4.95;1.02;;;;;;;28.02;36.58;100100.84;5094176;28;20042;-73
2021/06/30 08:49:43;;;;;;;4.15;1.80;;;;;;;28.04;36.56;100106.75;5102326;28;20503;-71
2021/06/30 08:52:30;;;;;;;4.93;1.77;;;;;;;28.05;36.27;100105.53;5094984;28;20054;-71
2021/06/30 08:55:16;;;;;;;8.43;1.90;;;;;;;28.05;36.42;100108.31;5094527;28;20415;-72
2021/06/30 08:58:01;;;;;;;11.18;1.30;;;;;;;28.06;36.57;100109.88;5092333;28;20051;-71
2021/06/30 09:00:46;;;;;;;3.63;1.23;;;;;;;28.15;36.28;100111.25;5094524;28;20046;-72
2021/06/30 09:03:31;;;;;;;5.50;1.00;;;;;;;28.11;36.55;100111.34;5092708;28;20051;-72
2021/06/30 09:06:18;;;;;;;4.13;1.38;;;;;;;28.05;36.22;100113.91;5096852;28;20055;-73
2021/06/30 09:09:22;;;;;;;7.80;1.23;;;;;;;28.04;36.31;100111.56;5089225;28;20055;-71
2021/06/30 09:12:07;;;;;;;12.63;1.70;;;;;;;28.15;36.17;100102.84;5109592;28;20058;-73
2021/06/30 09:14:52;;;;;;;17.25;1.95;;;;;;;28.21;36.25;100098.25;5114283;28;20046;-72
2021/06/30 09:17:37;;;;;;;7.88;2.05;;;;;;;28.23;36.19;100104.97;5105997;28;20510;-71
2021/06/30 09:20:22;;;;;;;10.02;2.55;;;;;;;28.23;36.33;100107.00;5094378;28;20498;-74
2021/06/30 09:23:07;;;;;;;4.65;1.05;;;;;;;28.19;36.37;100111.91;5111902;28;20105;-72
2021/06/30 09:25:52;;;;;;;8.93;1.38;;;;;;;28.24;36.35;100102.97;5108374;28;20046;-73
2021/06/30 09:28:43;;;;;;;9.23;1.63;;;;;;;28.19;36.28;100100.75;5101830;28;20043;-73
2021/06/30 09:31:28;;;;;;;14.32;1.75;;;;;;;28.33;36.71;100105.84;5106225;28;20043;-72
2021/06/30 09:34:18;;;;;;;12.63;2.75;;;;;;;28.46;36.21;100109.38;5103916;28;20058;-72
2021/06/30 09:37:05;;;;;;;41.22;3.30;;;;;;;28.40;36.41;100102.78;5091202;28;20043;-73
2021/06/30 09:39:55;;;;;;;19.80;2.30;;;;;;;28.38;35.72;100108.06;5095222;28;20518;-73
2021/06/30 09:42:40;;;;;;;9.25;1.73;;;;;;;28.42;36.15;100106.72;5090237;28;20039;-73
2021/06/30 09:45:25;;;;;;;11.95;2.65;;;;;;;28.47;36.35;100099.75;5097042;28;20091;-73
2021/06/30 09:48:10;;;;;;;25.48;3.28;;;;;;;28.52;36.76;100110.38;5094031;28;20043;-71
2021/06/30 09:50:55;;;;;;;59.65;5.20;;;;;;;33.43;30.51;100114.16;5078420;28;20071;-72
2021/06/30 09:53:41;;;;;;;6.13;1.30;;;;;;;36.58;22.52;100111.66;5098477;28;20505;-68
2021/06/30 09:57:01;;;;;;;13.43;2.25;;;;;;;40.15;18.57;100131.22;5097642;28;20062;-68
2021/06/30 09:59:39;;;;;;;10.68;2.10;;;;;;;42.12;15.99;100126.50;5113859;27;20134;-67
2021/06/30 10:02:40;;;;;;;8.73;1.63;;;;;;;43.44;15.59;100144.19;5100027;28;20526;-67
2021/06/30 10:05:30;;;;;;;3.63;0.98;;;;;;;41.43;15.90;100124.59;5118064;28;20050;-68
2021/06/30 10:08:17;;;;;;;3.80;1.42;;;;;;;43.82;14.23;100133.06;5116195;28;20399;-68
2021/06/30 10:11:11;;;;;;;4.57;1.00;;;;;;;45.34;12.67;100144.56;5119483;28;20042;-67
2021/06/30 10:13:58;;;;;;;5.57;1.73;;;;;;;45.73;12.27;100135.38;5079750;28;20055;-67
2021/06/30 10:16:44;;;;;;;22.88;2.25;;;;;;;41.55;16.13;100130.16;5084205;28;20062;-67
2021/06/30 10:19:30;;;;;;;9.15;1.33;;;;;;;37.25;20.67;100112.66;5099072;28;20047;-67
2021/06/30 10:22:16;;;;;;;12.05;1.27;;;;;;;34.00;23.84;100108.94;5096709;28;20051;-67
2021/06/30 10:25:01;;;;;;;10.10;1.83;;;;;;;33.42;25.79;100115.44;5079652;28;20110;-67
2021/06/30 10:27:46;;;;;;;8.00;1.30;;;;;;;32.15;26.70;100106.75;5098608;28;20519;-66
2021/06/30 10:30:32;;;;;;;11.98;1.50;;;;;;;31.64;27.61;100106.06;5094712;28;20051;-66
2021/06/30 10:33:33;;;;;;;7.05;1.10;;;;;;;31.20;28.47;100098.03;5094913;28;20055;-66
2021/06/30 10:36:46;;;;;;;8.70;1.10;;;;;;;30.82;28.98;100100.59;5097781;28;20055;-65
2021/06/30 10:39:36;;;;;;;6.90;1.50;;;;;;;30.50;29.60;100101.97;5094504;28;20046;-66
2021/06/30 10:42:41;;;;;;;5.95;0.90;;;;;;;30.23;30.09;100091.47;5098272;28;20066;-66
2021/06/30 10:45:26;;;;;;;7.63;1.13;;;;;;;29.93;29.82;100086.72;5095514;28;20107;-65
2021/06/30 10:48:13;;;;;;;3.38;1.00;;;;;;;29.79;30.21;100095.69;5080609;28;20043;-66
2021/06/30 10:50:58;;;;;;;3.10;0.90;;;;;;;29.67;30.11;100089.72;5097606;28;20043;-66
2021/06/30 10:53:43;;;;;;;4.95;1.80;;;;;;;29.58;30.84;100083.28;5095644;28;20399;-65
2021/06/30 10:56:32;;;;;;;6.25;1.20;;;;;;;29.54;30.74;100077.84;5094238;28;20066;-65
2021/06/30 10:59:16;;;;;;;7.20;0.80;;;;;;;29.50;31.24;100082.81;5097089;28;20075;-65
2021/06/30 11:02:11;;;;;;;2.88;1.13;;;;;;;29.41;31.00;100085.53;5095472;28;20511;-66
2021/06/30 11:04:57;;;;;;;4.32;0.85;;;;;;;29.45;31.40;100077.81;5098521;28;20068;-66
2021/06/30 11:07:42;;;;;;;2.95;0.57;;;;;;;29.28;31.63;100077.22;5096620;28;20047;-65
2021/06/30 11:10:27;;;;;;;2.97;1.17;;;;;;;29.31;31.47;100072.72;5078396;28;20051;-66
2021/06/30 11:13:11;;;;;;;2.88;1.00;;;;;;;29.32;31.77;100077.88;5097085;28;20039;-66
2021/06/30 11:15:56;;;;;;;5.68;1.13;;;;;;;29.22;31.51;100064.25;5096865;28;20047;-66
2021/06/30 11:18:43;;;;;;;5.57;0.77;;;;;;;29.14;31.54;100062.97;5093870;28;20418;-66
2021/06/30 11:21:46;;;;;;;8.18;1.15;;;;;;;29.13;31.58;100067.78;5100915;28;20047;-66
2021/06/30 11:27:23;;;;;;;6.20;1.45;;;;;;;29.15;31.26;100067.34;5092364;28;20043;-65
2021/06/30 11:30:10;;;;;;;4.90;0.82;;;;;;;29.07;30.83;100066.03;5093776;28;20063;-65
2021/06/30 11:32:56;;;;;;;15.80;1.60;;;;;;;29.10;29.11;100056.72;5095979;28;20047;-66
2021/06/30 11:35:45;;;;;;;8.80;1.30;;;;;;;29.22;28.84;100059.44;5091154;28;20415;-65
2021/06/30 11:38:32;;;;;;;5.70;1.10;;;;;;;29.37;30.04;100056.88;5093650;28;20043;-67
2021/06/30 11:41:25;;;;;;;6.68;1.50;;;;;;;29.42;29.74;100056.28;5095157;28;20039;-66
2021/06/30 11:44:10;;;;;;;5.53;0.60;;;;;;;29.35;30.33;100050.97;5090072;28;20043;-65
2021/06/30 11:47:01;;;;;;;10.23;1.42;;;;;;;29.26;30.20;100057.28;5096440;28;20063;-64
2021/06/30 11:49:46;;;;;;;12.75;3.05;;;;;;;29.18;30.15;100047.59;5093270;28;20055;-65
2021/06/30 11:52:32;;;;;;;8.65;0.68;;;;;;;29.23;29.40;100043.41;5097677;28;20054;-65
2021/06/30 11:55:17;;;;;;;12.07;1.25;;;;;;;29.19;28.75;100048.38;5096509;28;20055;-65
2021/06/30 11:58:03;;;;;;;9.25;1.02;;;;;;;29.33;30.09;100043.03;5090367;28;20043;-65
2021/06/30 12:00:48;;;;;;;60.53;3.03;;;;;;;29.31;27.42;100027.91;5090186;28;20051;-66
2021/06/30 12:03:34;;;;;;;14.60;1.40;;;;;;;29.61;26.99;100037.53;5093366;28;20051;-65
2021/06/30 12:06:22;;;;;;;10.20;1.08;;;;;;;29.66;27.12;100026.47;5095715;28;20047;-66
2021/06/30 12:09:10;;;;;;;12.70;2.35;;;;;;;29.49;27.82;100032.81;5094573;28;20043;-66
2021/06/30 12:12:03;;;;;;;7.53;0.85;;;;;;;29.48;28.34;100032.03;5078230;28;20055;-65
2021/06/30 12:14:50;;;;;;;4.20;0.90;;;;;;;29.41;28.98;100032.31;5093476;28;20404;-65
2021/06/30 12:17:35;;;;;;;11.43;1.50;;;;;;;29.26;29.27;100031.28;5094882;28;20054;-65
2021/06/30 12:20:22;;;;;;;5.35;1.10;;;;;;;29.33;27.50;100025.44;5090518;28;20047;-66
2021/06/30 12:23:07;;;;;;;7.65;0.98;;;;;;;29.44;27.82;100020.19;5095610;28;20051;-66
2021/06/30 12:25:52;;;;;;;8.50;0.80;;;;;;;29.60;27.49;100010.75;5094657;28;20046;-67
2021/06/30 12:28:45;;;;;;;12.38;0.77;;;;;;;29.59;27.70;100007.16;5093030;28;20047;-67
2021/06/30 12:31:30;;;;;;;22.98;1.63;;;;;;;29.58;28.51;100007.63;5095030;28;20047;-67
2021/06/30 12:34:15;;;;;;;14.30;2.25;;;;;;;29.48;28.22;100001.22;5094393;28;20067;-68
2021/06/30 12:37:01;;;;;;;37.47;2.25;;;;;;;29.53;28.41;99997.03;5090655;28;20062;-67
2021/06/30 12:39:55;;;;;;;21.83;2.72;;;;;;;29.54;28.78;100004.19;5095345;28;20059;-67
2021/06/30 12:42:57;;;;;;;15.05;2.08;;;;;;;29.54;28.74;100004.97;5092636;28;20047;-67
2021/06/30 12:45:45;;;;;;;8.07;1.38;;;;;;;29.47;27.75;99993.25;5089295;28;20054;-68
2021/06/30 12:48:34;;;;;;;6.45;1.00;;;;;;;29.60;27.52;99989.13;5090147;28;20027;-68
2021/06/30 12:51:23;;;;;;;21.75;2.65;;;;;;;29.64;28.61;99989.75;5098738;28;20419;-69
2021/06/30 12:54:10;;;;;;;12.85;2.80;;;;;;;29.46;28.75;99992.47;5098653;28;20047;-67
2021/06/30 12:57:00;;;;;;;14.98;0.85;;;;;;;29.45;24.98;99982.53;5095686;28;20050;-67